Time;durP1;ratioP1;P1;durP2;ratioP2;P2;SDS_P1;SDS_P2;PMS_P1;PMS_P2;Temp;Humidity;BMP_temperature;BMP_pressure;BME280_temperature;BME280_humidity;BME280_pressure;Samples;Min_cycle;Max_cycle;Signal;HPM_P1;HPM_P2
2023/03/08 00:01:38;;;;;;;34.93;9.60;;;13.30;54.80;;;;;;5070311;28;20203;-94
2023/03/08 00:04:05;;;;;;;47.67;10.47;;;13.20;54.80;;;;;;5070356;28;20211;-95
2023/03/08 00:06:33;;;;;;;43.23;10.20;;;13.30;54.90;;;;;;5068935;28;20279;-94
2023/03/08 00:09:02;;;;;;;53.97;10.40;;;13.40;54.90;;;;;;5068800;28;20610;-94
2023/03/08 00:11:29;;;;;;;40.10;9.67;;;13.30;54.80;;;;;;5054823;28;20227;-94
2023/03/08 00:14:00;;;;;;;42.73;10.53;;;13.20;54.80;;;;;;5069557;28;20231;-93
2023/03/08 00:16:27;;;;;;;36.77;10.10;;;13.30;54.90;;;;;;5051981;28;20311;-94
2023/03/08 00:21:37;;;;;;;47.13;10.77;;;13.20;54.80;;;;;;5016418;28;20294;-94
2023/03/08 00:24:51;;;;;;;;;;;;;;;;;;;;;
2023/03/08 00:27:18;;;;;;;29.33;9.17;;;13.20;54.80;;;;;;5019639;28;20214;-94
2023/03/08 00:29:45;;;;;;;40.90;10.23;;;13.20;54.80;;;;;;5047934;28;20203;-93
2023/03/08 00:32:15;;;;;;;42.00;9.77;;;13.20;54.80;;;;;;5049222;28;20742;-94
2023/03/08 00:34:45;;;;;;;42.33;10.40;;;13.20;54.80;;;;;;5049495;28;20670;-94
2023/03/08 00:37:15;;;;;;;51.17;10.70;;;13.20;54.80;;;;;;5046976;28;20202;-94
2023/03/08 00:39:42;;;;;;;52.73;11.23;;;13.20;54.80;;;;;;5040680;28;20537;-95
2023/03/08 00:42:09;;;;;;;33.70;9.47;;;13.20;54.80;;;;;;5048320;28;21037;-95
2023/03/08 00:47:37;;;;;;;40.67;10.47;;;13.20;54.80;;;;;;5036606;28;20293;-95
2023/03/08 00:50:04;;;;;;;51.33;10.97;;;13.20;54.80;;;;;;5040230;28;20207;-95
2023/03/08 00:52:32;;;;;;;43.53;10.93;;;13.20;54.80;;;;;;5049703;28;20230;-94
2023/03/08 00:54:59;;;;;;;60.40;11.77;;;13.20;54.80;;;;;;5047581;28;20715;-95
2023/03/08 00:57:26;;;;;;;41.10;10.40;;;13.20;54.80;;;;;;5047689;28;20571;-94
2023/03/08 00:59:53;;;;;;;48.37;11.23;;;13.20;54.80;;;;;;5039434;28;20199;-94
2023/03/08 01:02:20;;;;;;;43.33;10.17;;;13.20;54.80;;;;;;5049542;28;20299;-93
2023/03/08 01:04:47;;;;;;;47.60;11.07;;;13.10;54.80;;;;;;5032002;28;20204;-94
2023/03/08 01:07:14;;;;;;;46.03;10.77;;;13.20;54.80;;;;;;5036450;28;20338;-94
2023/03/08 01:09:43;;;;;;;45.87;11.50;;;13.20;54.80;;;;;;5053906;28;20688;-94
2023/03/08 01:12:12;;;;;;;35.77;10.50;;;13.20;54.80;;;;;;5051919;28;20307;-94
2023/03/08 01:14:39;;;;;;;37.30;10.23;;;13.10;54.70;;;;;;5052035;28;20223;-95
2023/03/08 01:17:06;;;;;;;39.03;10.77;;;13.10;54.70;;;;;;5043953;28;20703;-94
2023/03/08 01:19:33;;;;;;;41.50;11.07;;;13.10;54.70;;;;;;5037975;28;20225;-94
2023/03/08 01:22:00;;;;;;;50.30;11.40;;;13.10;54.70;;;;;;5050226;28;20208;-94
2023/03/08 01:24:27;;;;;;;44.27;10.90;;;13.10;54.70;;;;;;5051068;28;20290;-94
2023/03/08 01:26:57;;;;;;;41.27;11.30;;;13.10;55.30;;;;;;5048433;28;20942;-94
2023/03/08 01:29:24;;;;;;;40.37;10.57;;;13.10;54.70;;;;;;5049811;28;20204;-95
2023/03/08 01:31:52;;;;;;;47.93;11.17;;;13.10;54.70;;;;;;5052627;28;20644;-94
2023/03/08 01:34:25;;;;;;;65.73;12.87;;;13.10;54.70;;;;;;5051379;28;20256;-94
2023/03/08 01:36:52;;;;;;;41.50;10.77;;;13.10;54.70;;;;;;5036303;28;20645;-95
2023/03/08 01:39:19;;;;;;;50.47;10.63;;;13.10;54.70;;;;;;5051984;28;20207;-94
2023/03/08 01:41:48;;;;;;;44.30;12.03;;;13.10;54.70;;;;;;5047803;28;20228;-95
2023/03/08 01:44:21;;;;;;;44.83;10.90;;;13.10;54.70;;;;;;5033228;28;20657;-95
2023/03/08 01:46:53;;;;;;;48.37;11.60;;;13.10;54.70;;;;;;5046372;28;20195;-95
2023/03/08 01:49:25;;;;;;;50.90;11.53;;;13.10;54.80;;;;;;5039179;28;20304;-95
2023/03/08 01:51:56;;;;;;;47.33;11.53;;;13.10;54.70;;;;;;5043313;28;20629;-95
2023/03/08 01:54:27;;;;;;;46.77;11.80;;;13.10;54.70;;;;;;5052448;28;20330;-95
2023/03/08 01:56:59;;;;;;;42.23;10.80;;;13.10;54.80;;;;;;5044597;28;20723;-95
2023/03/08 01:59:30;;;;;;;44.73;11.00;;;13.10;54.70;;;;;;5051881;28;20211;-95
2023/03/08 02:01:58;;;;;;;49.07;11.70;;;13.10;54.70;;;;;;5072554;28;20180;-94
2023/03/08 02:04:56;;;;;;;48.30;11.53;;;13.00;54.60;;;;;;5072344;28;20292;-95
2023/03/08 02:07:23;;;;;;;42.43;11.00;;;13.10;54.70;;;;;;5054803;28;20190;-95
2023/03/08 02:09:51;;;;;;;37.97;10.40;;;13.10;54.70;;;;;;5036529;28;20211;-94
2023/03/08 02:12:21;;;;;;;37.20;10.67;;;13.00;54.60;;;;;;5044331;28;20212;-95
2023/03/08 02:14:55;;;;;;;33.17;10.90;;;13.00;54.60;;;;;;5052470;28;20287;-94
2023/03/08 02:17:23;;;;;;;44.80;12.07;;;13.00;54.60;;;;;;5050979;28;20311;-94
2023/03/08 02:19:57;;;;;;;52.20;12.07;;;13.00;54.70;;;;;;5051291;28;20928;-95
2023/03/08 02:22:25;;;;;;;47.40;11.27;;;13.00;54.60;;;;;;5042409;28;20234;-96
2023/03/08 02:24:53;;;;;;;41.70;10.70;;;13.00;54.60;;;;;;5051430;28;20212;-94
2023/03/08 02:27:24;;;;;;;44.07;11.40;;;13.10;54.80;;;;;;5050434;28;20208;-94
2023/03/08 02:29:51;;;;;;;44.97;11.63;;;13.00;54.70;;;;;;5042512;28;20315;-95
2023/03/08 02:32:18;;;;;;;41.77;11.27;;;13.00;54.70;;;;;;5045819;28;20300;-95
2023/03/08 02:35:18;;;;;;;41.90;10.70;;;13.00;54.60;;;;;;5038732;28;20323;-94
2023/03/08 02:37:45;;;;;;;51.23;11.00;;;13.00;54.70;;;;;;5043683;28;20204;-95
2023/03/08 02:40:14;;;;;;;55.00;12.10;;;13.00;54.70;;;;;;5049417;28;20299;-94
2023/03/08 02:42:41;;;;;;;32.70;9.97;;;13.00;54.60;;;;;;5042395;28;20298;-90
2023/03/08 02:45:09;;;;;;;32.17;10.57;;;13.00;54.70;;;;;;5037855;28;20192;-95
2023/03/08 02:47:36;;;;;;;32.23;10.20;;;13.00;54.70;;;;;;5031992;28;20209;-95
2023/03/08 02:50:05;;;;;;;43.87;11.17;;;13.00;54.70;;;;;;5031423;28;20307;-95
2023/03/08 02:52:32;;;;;;;31.60;10.13;;;13.00;54.70;;;;;;5040213;28;20216;-95
2023/03/08 02:58:05;;;;;;;62.00;12.90;;;13.00;54.70;;;;;;5039119;22;20631;-95
2023/03/08 03:00:32;;;;;;;47.93;11.40;;;13.00;54.70;;;;;;5031826;28;20747;-96
2023/03/08 03:03:00;;;;;;;38.27;9.97;;;13.00;55.30;;;;;;5023361;28;20304;-95
2023/03/08 03:05:26;;;;;;;54.43;11.50;;;13.00;54.70;;;;;;5075596;22;20318;-95
2023/03/08 03:07:57;;;;;;;49.70;11.53;;;13.00;54.70;;;;;;5031046;28;20670;-95
2023/03/08 03:10:24;;;;;;;37.10;10.40;;;13.00;54.70;;;;;;5031055;28;20297;-95
2023/03/08 03:12:51;;;;;;;47.83;11.30;;;12.90;54.60;;;;;;5030837;28;20282;-95
2023/03/08 03:15:20;;;;;;;27.50;9.67;;;12.80;54.50;;;;;;5029944;28;20315;-94
2023/03/08 03:17:47;;;;;;;37.57;10.03;;;13.00;54.80;;;;;;5030140;28;20210;-94
2023/03/08 03:20:14;;;;;;;31.97;9.33;;;13.00;54.70;;;;;;5024918;28;20207;-94
2023/03/08 03:22:41;;;;;;;25.57;8.87;;;13.00;54.70;;;;;;5011618;28;20207;-95
2023/03/08 03:25:09;;;;;;;33.40;9.97;;;13.10;54.80;;;;;;5022122;28;20219;-94
2023/03/08 03:27:39;;;;;;;47.77;10.10;;;12.90;54.60;;;;;;5031239;28;20306;-95
2023/03/08 03:30:08;;;;;;;35.17;9.60;;;13.00;54.70;;;;;;5031325;28;20792;-94
2023/03/08 03:32:36;;;;;;;49.83;11.50;;;13.00;54.70;;;;;;5030116;28;20672;-95
2023/03/08 03:35:04;;;;;;;36.23;10.13;;;13.00;54.70;;;;;;5029847;28;20236;-94
2023/03/08 03:37:31;;;;;;;21.70;8.20;;;13.00;54.70;;;;;;5030820;28;20689;-94
2023/03/08 03:39:58;;;;;;;33.83;9.93;;;12.90;54.60;;;;;;5031126;28;20604;-94
2023/03/08 03:42:25;;;;;;;30.07;9.00;;;12.90;54.60;;;;;;5031241;28;20307;-95
2023/03/08 03:44:52;;;;;;;32.43;9.63;;;12.90;54.60;;;;;;5029920;28;20724;-94
2023/03/08 03:47:20;;;;;;;26.97;9.77;;;13.00;54.70;;;;;;5030865;28;20243;-94
2023/03/08 03:49:49;;;;;;;26.03;8.67;;;13.00;54.70;;;;;;5029089;28;20238;-95
2023/03/08 03:52:16;;;;;;;33.17;9.23;;;13.00;54.70;;;;;;5030380;28;20960;-95
2023/03/08 03:54:43;;;;;;;40.40;10.43;;;12.90;54.60;;;;;;5030338;28;20315;-94
2023/03/08 03:57:12;;;;;;;49.53;11.25;;;13.00;54.70;;;;;;5028136;28;20451;-94
2023/03/08 03:59:40;;;;;;;39.40;9.93;;;12.90;54.70;;;;;;5029730;28;20219;-94
2023/03/08 04:02:08;;;;;;;38.50;9.60;;;12.90;54.80;;;;;;5029576;28;20264;-94
2023/03/08 04:04:35;;;;;;;42.67;11.07;;;12.90;54.70;;;;;;5029536;28;20207;-94
2023/03/08 04:07:03;;;;;;;32.80;10.10;;;12.90;54.60;;;;;;5029662;28;20314;-94
2023/03/08 04:09:30;;;;;;;39.60;10.03;;;12.90;54.60;;;;;;5029899;28;20240;-94
2023/03/08 04:12:01;;;;;;;41.53;10.13;;;13.00;54.60;;;;;;5029711;28;20243;-94
2023/03/08 04:14:52;;;;;;;59.17;11.13;;;13.00;54.60;;;;;;5029495;28;20684;-95
2023/03/08 04:17:19;;;;;;;34.07;9.73;;;12.90;54.50;;;;;;5029854;28;20204;-94
2023/03/08 04:19:49;;;;;;;50.13;10.43;;;13.00;54.60;;;;;;5026335;28;20212;-94
2023/03/08 04:22:18;;;;;;;43.67;10.47;;;12.90;54.50;;;;;;5028913;28;20203;-94
2023/03/08 04:24:45;;;;;;;51.33;10.77;;;13.00;54.50;;;;;;5028906;28;20308;-94
2023/03/08 04:27:12;;;;;;;47.13;10.93;;;13.00;54.60;;;;;;5028320;28;20643;-95
2023/03/08 04:29:39;;;;;;;34.13;9.17;;;12.90;54.50;;;;;;5030112;28;20631;-94
2023/03/08 04:32:07;;;;;;;33.77;9.40;;;12.90;54.50;;;;;;5028924;28;20307;-95
2023/03/08 04:34:33;;;;;;;43.33;10.33;;;12.90;54.50;;;;;;5029293;28;20230;-96
2023/03/08 04:37:00;;;;;;;43.70;10.03;;;12.90;54.50;;;;;;5029890;28;20202;-95
2023/03/08 04:39:29;;;;;;;36.10;9.70;;;12.90;54.50;;;;;;5030313;28;20211;-95
2023/03/08 04:41:56;;;;;;;47.70;10.57;;;12.90;54.50;;;;;;5020868;28;20263;-94
2023/03/08 04:44:23;;;;;;;34.33;9.80;;;12.90;54.50;;;;;;5017632;28;20231;-94
2023/03/08 04:46:50;;;;;;;37.70;9.53;;;12.90;54.50;;;;;;5029557;28;20200;-94
2023/03/08 04:49:17;;;;;;;37.97;9.73;;;12.90;54.50;;;;;;5028862;28;20235;-94
2023/03/08 04:55:04;;;;;;;44.63;10.13;;;12.90;54.50;;;;;;5019939;28;20230;-95
2023/03/08 04:57:31;;;;;;;54.30;11.20;;;12.80;54.40;;;;;;5028818;28;20215;-95
2023/03/08 04:59:58;;;;;;;44.37;10.20;;;12.90;54.50;;;;;;5029401;28;20192;-94
2023/03/08 05:02:26;;;;;;;49.83;10.43;;;12.90;54.50;;;;;;5028988;28;20207;-95
2023/03/08 05:04:53;;;;;;;27.33;9.33;;;12.80;54.40;;;;;;5028025;28;20211;-94
2023/03/08 05:07:20;;;;;;;24.93;8.87;;;13.00;54.50;;;;;;5029267;28;20881;-95
2023/03/08 05:09:46;;;;;;;44.90;10.60;;;12.80;54.40;;;;;;5029250;28;20496;-95
2023/03/08 05:12:59;;;;;;;40.07;10.30;;;13.00;54.50;;;;;;5029684;28;20828;-94
2023/03/08 05:15:28;;;;;;;41.53;9.73;;;12.70;54.20;;;;;;5006672;28;20239;-95
2023/03/08 05:17:55;;;;;;;36.63;9.60;;;12.80;54.40;;;;;;5029269;28;20208;-94
2023/03/08 05:20:22;;;;;;;41.17;9.93;;;12.80;54.30;;;;;;5033456;28;20207;-95
2023/03/08 05:22:50;;;;;;;32.23;9.67;;;12.80;54.30;;;;;;5052755;28;20197;-95
2023/03/08 05:25:17;;;;;;;31.43;9.43;;;12.80;54.90;;;;;;5048481;28;20201;-95
2023/03/08 05:27:45;;;;;;;31.30;10.07;;;12.80;54.30;;;;;;5032223;28;20292;-94
2023/03/08 05:30:12;;;;;;;23.27;8.97;;;12.80;54.40;;;;;;5017986;28;20262;-94
2023/03/08 05:32:41;;;;;;;26.47;9.27;;;12.80;54.40;;;;;;5019430;28;20222;-95
2023/03/08 05:35:09;;;;;;;18.67;8.57;;;12.80;54.30;;;;;;5030978;28;20324;-95
2023/03/08 05:37:36;;;;;;;21.87;8.73;;;12.80;54.30;;;;;;5030364;28;20212;-95
2023/03/08 05:40:05;;;;;;;29.17;9.80;;;12.80;54.30;;;;;;5030261;28;20714;-94
2023/03/08 05:42:32;;;;;;;41.03;10.77;;;12.80;54.40;;;;;;5029526;28;20359;-94
2023/03/08 05:44:59;;;;;;;34.90;9.73;;;12.80;54.30;;;;;;5029570;28;20291;-95
2023/03/08 05:47:28;;;;;;;62.70;12.23;;;12.80;54.30;;;;;;5027126;28;20200;-96
2023/03/08 05:49:56;;;;;;;31.43;9.43;;;12.70;54.20;;;;;;5029311;28;21035;-94
2023/03/08 05:52:23;;;;;;;31.03;9.33;;;12.80;54.30;;;;;;5030947;28;20207;-95
2023/03/08 05:54:50;;;;;;;33.53;9.00;;;12.70;54.20;;;;;;5032653;28;20318;-94
2023/03/08 05:57:17;;;;;;;31.40;10.13;;;12.80;54.30;;;;;;5032216;28;20207;-95
2023/03/08 05:59:44;;;;;;;42.33;10.90;;;12.70;54.80;;;;;;5033235;28;20220;-94
2023/03/08 06:02:11;;;;;;;31.23;9.20;;;12.70;54.20;;;;;;5031888;28;20296;-94
2023/03/08 06:04:38;;;;;;;33.90;10.43;;;12.70;54.20;;;;;;5033173;28;20293;-95
2023/03/08 06:07:06;;;;;;;40.10;10.40;;;12.70;54.20;;;;;;5032837;28;20687;-94
2023/03/08 06:09:35;;;;;;;22.30;8.97;;;12.70;54.20;;;;;;5032118;28;20666;-94
2023/03/08 06:12:02;;;;;;;54.83;11.63;;;12.70;54.20;;;;;;5032304;28;20270;-95
2023/03/08 06:14:30;;;;;;;37.23;9.50;;;12.70;54.20;;;;;;5031576;28;20290;-94
2023/03/08 06:16:57;;;;;;;60.50;11.63;;;12.70;54.20;;;;;;5029001;28;20239;-94
2023/03/08 06:19:24;;;;;;;37.17;9.20;;;12.70;54.20;;;;;;5031396;28;20227;-94
2023/03/08 06:21:51;;;;;;;58.73;11.47;;;12.70;54.20;;;;;;5030998;28;20657;-94
2023/03/08 06:27:02;;;;;;;64.63;11.87;;;12.80;54.20;;;;;;5028179;28;20222;-94
2023/03/08 06:29:30;;;;;;;47.50;10.67;;;12.60;54.10;;;;;;5029965;28;20231;-94
2023/03/08 06:34:38;;;;;;;29.03;9.07;;;12.60;54.10;;;;;;5032395;28;20247;-95
2023/03/08 06:37:05;;;;;;;58.83;11.60;;;12.70;54.10;;;;;;5031230;28;20196;-94
2023/03/08 06:39:33;;;;;;;31.93;9.67;;;12.60;54.10;;;;;;5025358;28;20209;-96
2023/03/08 06:42:01;;;;;;;48.50;10.53;;;12.60;54.10;;;;;;5031995;28;20651;-94
2023/03/08 06:44:29;;;;;;;38.53;10.37;;;12.60;54.10;;;;;;5020474;28;20203;-96
2023/03/08 06:46:56;;;;;;;33.60;10.13;;;12.60;54.10;;;;;;5017039;28;20210;-96
2023/03/08 06:49:23;;;;;;;27.13;8.80;;;12.60;54.10;;;;;;5027235;28;20197;-94
2023/03/08 06:51:54;;;;;;;43.90;10.40;;;12.60;54.10;;;;;;5041451;28;20208;-95
2023/03/08 06:54:23;;;;;;;37.30;10.00;;;12.60;54.10;;;;;;5043617;28;20253;-96
2023/03/08 06:56:51;;;;;;;32.20;9.23;;;12.60;54.10;;;;;;5036675;28;20203;-95
2023/03/08 06:59:19;;;;;;;33.33;9.57;;;12.50;54.00;;;;;;5042872;28;20934;-94
2023/03/08 07:01:46;;;;;;;30.00;9.37;;;12.60;54.10;;;;;;5042670;28;20187;-94
2023/03/08 07:04:13;;;;;;;45.37;10.73;;;12.60;54.10;;;;;;5046799;28;20279;-94
2023/03/08 07:06:56;;;;;;;34.23;9.20;;;12.60;54.10;;;;;;5051810;28;20228;-93
2023/03/08 07:09:23;;;;;;;32.70;8.87;;;12.60;54.00;;;;;;5057645;28;20222;-95
2023/03/08 07:11:53;;;;;;;21.80;8.83;;;12.70;54.20;;;;;;5054772;28;20200;-94
2023/03/08 07:14:21;;;;;;;24.93;9.30;;;12.60;54.10;;;;;;5050972;28;20216;-94
2023/03/08 07:16:53;;;;;;;38.13;9.97;;;12.50;54.00;;;;;;5047266;28;20276;-94
2023/03/08 07:19:21;;;;;;;27.00;8.50;;;12.50;54.00;;;;;;5055811;28;20358;-95
2023/03/08 07:21:48;;;;;;;32.50;9.70;;;12.50;54.00;;;;;;5055911;28;20208;-94
2023/03/08 07:24:21;;;;;;;29.60;9.30;;;12.50;54.00;;;;;;5055577;28;20213;-94
2023/03/08 07:26:52;;;;;;;31.83;9.17;;;12.50;54.00;;;;;;5043272;28;20211;-94
2023/03/08 07:29:25;;;;;;;36.17;8.70;;;12.50;54.00;;;;;;5037679;28;20236;-94
2023/03/08 07:35:14;;;;;;;36.63;8.73;;;12.50;53.90;;;;;;5031099;28;20231;-93
2023/03/08 07:37:54;;;;;;;42.77;9.43;;;12.50;54.00;;;;;;5018846;28;20725;-94
2023/03/08 07:40:23;;;;;;;28.67;8.57;;;12.50;54.60;;;;;;5031174;28;20200;-94
2023/03/08 07:42:52;;;;;;;34.67;8.87;;;12.50;54.00;;;;;;5042102;28;20223;-95
2023/03/08 07:45:38;;;;;;;28.00;8.27;;;12.50;54.00;;;;;;5039469;28;20204;-94
2023/03/08 07:48:09;;;;;;;29.53;9.07;;;12.50;54.00;;;;;;5026017;28;20221;-93
2023/03/08 07:50:38;;;;;;;39.40;9.13;;;12.50;54.00;;;;;;5032125;28;20204;-92
2023/03/08 07:53:06;;;;;;;31.90;8.50;;;12.50;54.00;;;;;;5030019;28;20702;-88
2023/03/08 07:55:33;;;;;;;42.30;8.87;;;12.40;53.90;;;;;;5030604;28;20601;-90
2023/03/08 07:58:00;;;;;;;31.70;8.27;;;12.30;53.90;;;;;;5029553;28;20588;-93
2023/03/08 08:00:29;;;;;;;36.10;8.50;;;12.40;53.90;;;;;;5027493;28;20228;-88
2023/03/08 08:02:59;;;;;;;29.00;7.70;;;12.40;54.00;;;;;;5023129;28;20216;-95
2023/03/08 08:05:41;;;;;;;45.63;8.33;;;12.40;54.00;;;;;;5030894;28;20220;-94
2023/03/08 08:08:09;;;;;;;34.93;8.23;;;12.40;53.90;;;;;;5027675;28;20670;-87
2023/03/08 08:10:36;;;;;;;49.80;9.40;;;12.40;54.00;;;;;;5023046;28;20219;-91
2023/03/08 08:13:03;;;;;;;58.37;9.80;;;12.40;54.00;;;;;;5026671;28;20318;-93
2023/03/08 08:15:31;;;;;;;49.63;9.40;;;12.40;54.00;;;;;;5028834;28;20225;-94
2023/03/08 08:17:59;;;;;;;45.17;9.20;;;12.40;54.00;;;;;;5036822;28;20332;-94
2023/03/08 08:20:28;;;;;;;45.80;9.50;;;12.30;53.90;;;;;;5036716;28;20199;-96
2023/03/08 08:22:55;;;;;;;40.33;8.30;;;12.40;54.00;;;;;;5031400;28;20214;-96
2023/03/08 08:25:28;;;;;;;33.07;8.07;;;12.40;54.00;;;;;;5029732;28;20240;-96
2023/03/08 08:27:56;;;;;;;41.67;8.73;;;12.40;54.00;;;;;;5033927;28;20960;-95
2023/03/08 08:30:23;;;;;;;40.63;8.77;;;12.50;54.10;;;;;;5032580;28;20291;-95
2023/03/08 08:32:52;;;;;;;25.67;7.00;;;12.40;54.00;;;;;;5034057;28;20556;-96
2023/03/08 08:35:19;;;;;;;30.63;7.83;;;12.30;53.90;;;;;;5023914;28;20410;-95
2023/03/08 08:37:48;;;;;;;15.40;7.30;;;12.30;53.90;;;;;;5043068;28;20234;-96
2023/03/08 08:40:23;;;;;;;14.87;7.73;;;12.40;54.00;;;;;;5053211;28;20190;-96
2023/03/08 08:42:54;;;;;;;39.93;10.53;;;12.40;53.90;;;;;;5050842;28;20179;-96
2023/03/08 08:45:21;;;;;;;46.17;11.43;;;12.30;53.80;;;;;;5054002;28;20185;-96
2023/03/08 08:47:48;;;;;;;33.40;9.40;;;12.40;53.70;;;;;;5052385;28;20197;-96
2023/03/08 08:50:18;;;;;;;27.80;9.73;;;12.30;53.60;;;;;;5044841;28;20668;-96
2023/03/08 08:52:45;;;;;;;28.50;9.87;;;12.30;53.60;;;;;;5027735;28;20218;-96
2023/03/08 08:55:12;;;;;;;23.17;8.47;;;12.30;53.70;;;;;;5019562;28;20229;-96
2023/03/08 08:57:42;;;;;;;26.20;8.50;;;12.30;53.70;;;;;;5018102;28;20228;-96
2023/03/08 09:00:10;;;;;;;26.43;9.10;;;12.30;53.70;;;;;;5034403;28;20208;-96
2023/03/08 09:02:40;;;;;;;21.77;8.90;;;12.20;53.70;;;;;;5034410;28;20270;-96
2023/03/08 09:05:08;;;;;;;47.77;10.47;;;12.30;53.80;;;;;;5034218;28;20255;-96
2023/03/08 09:07:36;;;;;;;35.77;9.53;;;12.20;53.70;;;;;;5031003;28;20299;-96
2023/03/08 09:13:14;;;;;;;36.40;9.23;;;12.20;53.70;;;;;;5019335;28;20220;-96
2023/03/08 09:16:02;;;;;;;24.53;8.33;;;12.20;53.70;;;;;;5012360;28;20303;-96
2023/03/08 09:18:29;;;;;;;24.60;8.67;;;12.20;53.70;;;;;;5024590;28;20302;-96
2023/03/08 09:20:56;;;;;;;32.60;8.23;;;12.10;53.60;;;;;;5031076;28;20203;-96
2023/03/08 09:23:25;;;;;;;45.30;9.90;;;12.10;53.60;;;;;;5032472;28;20200;-96
2023/03/08 09:25:56;;;;;;;30.73;8.87;;;12.10;53.60;;;;;;5031575;28;20565;-96
2023/03/08 09:28:24;;;;;;;30.30;8.17;;;12.10;53.60;;;;;;5034915;28;20233;-96
2023/03/08 09:30:51;;;;;;;26.57;8.17;;;12.10;53.70;;;;;;5023467;28;20210;-96
2023/03/08 09:33:18;;;;;;;42.77;8.90;;;12.10;53.60;;;;;;5026895;28;20663;-95
2023/03/08 09:35:54;;;;;;;27.17;7.80;;;12.10;53.70;;;;;;5035612;28;20262;-96
2023/03/08 09:38:21;;;;;;;29.00;8.23;;;12.10;53.70;;;;;;5036695;28;20280;-96
2023/03/08 09:41:01;;;;;;;51.87;9.43;;;12.10;53.70;;;;;;5034663;28;20221;-96
2023/03/08 09:43:40;;;;;;;32.87;8.27;;;12.00;53.60;;;;;;5035537;28;20225;-96
2023/03/08 09:46:13;;;;;;;30.57;7.83;;;12.10;53.70;;;;;;5037197;28;20229;-96
2023/03/08 09:48:43;;;;;;;29.60;7.97;;;12.10;53.70;;;;;;5039756;28;20215;-96
2023/03/08 09:51:17;;;;;;;32.47;8.97;;;12.00;53.60;;;;;;5022760;28;20235;-96
2023/03/08 09:53:53;;;;;;;26.70;7.57;;;12.10;53.80;;;;;;5028101;28;20231;-96
2023/03/08 09:56:32;;;;;;;21.73;7.37;;;12.10;53.80;;;;;;5040859;28;20327;-96
2023/03/08 09:59:02;;;;;;;41.77;9.13;;;12.00;53.60;;;;;;5041759;28;20233;-96
2023/03/08 10:01:40;;;;;;;41.87;9.23;;;12.00;53.70;;;;;;5038185;28;20195;-96
2023/03/08 10:04:27;;;;;;;28.90;8.17;;;12.00;53.70;;;;;;5027278;28;20542;-96
2023/03/08 10:07:07;;;;;;;38.97;9.20;;;12.00;53.70;;;;;;5034135;28;20215;-96
2023/03/08 10:09:39;;;;;;;30.70;8.90;;;12.00;53.70;;;;;;5038500;28;20238;-96
2023/03/08 10:12:19;;;;;;;33.80;9.17;;;12.00;53.70;;;;;;5032374;28;20289;-96
2023/03/08 10:14:49;;;;;;;29.00;8.70;;;11.90;53.60;;;;;;5018114;28;20212;-96
2023/03/08 10:17:20;;;;;;;45.80;9.50;;;12.10;53.80;;;;;;5025351;28;20295;-96
2023/03/08 10:19:54;;;;;;;29.77;9.27;;;12.00;53.70;;;;;;5031367;28;20306;-96
2023/03/08 10:22:26;;;;;;;37.80;9.60;;;11.90;53.60;;;;;;5034335;28;20235;-96
2023/03/08 10:24:58;;;;;;;36.90;9.53;;;12.00;53.70;;;;;;5031006;28;20287;-96
2023/03/08 10:27:32;;;;;;;44.80;9.50;;;12.00;53.70;;;;;;5033268;28;20569;-96
2023/03/08 10:30:02;;;;;;;46.00;9.97;;;12.00;53.70;;;;;;5034262;28;20240;-96
2023/03/08 10:32:30;;;;;;;30.07;8.83;;;12.00;53.70;;;;;;5034392;28;20732;-96
2023/03/08 10:35:10;;;;;;;37.33;9.53;;;12.00;53.70;;;;;;5032725;28;20203;-96
2023/03/08 10:37:37;;;;;;;35.27;9.40;;;12.00;53.70;;;;;;5032876;28;20265;-96
2023/03/08 10:40:08;;;;;;;26.50;9.30;;;12.00;53.70;;;;;;5031903;28;20222;-96
2023/03/08 10:42:37;;;;;;;33.07;9.50;;;12.00;53.70;;;;;;5031303;28;20546;-96
2023/03/08 10:45:14;;;;;;;33.07;9.23;;;12.00;53.70;;;;;;5032450;28;20212;-96
2023/03/08 10:47:42;;;;;;;32.90;9.67;;;12.00;53.70;;;;;;5032161;28;20681;-96
2023/03/08 10:50:18;;;;;;;37.93;10.00;;;12.00;53.70;;;;;;5029891;28;20306;-96
2023/03/08 10:52:47;;;;;;;29.40;9.87;;;12.00;53.70;;;;;;5026736;28;20230;-96
2023/03/08 10:55:16;;;;;;;29.50;8.33;;;12.00;53.70;;;;;;5032997;28;20273;-96
2023/03/08 10:57:53;;;;;;;31.97;8.90;;;12.00;53.70;;;;;;5034240;28;20644;-96
2023/03/08 11:00:33;;;;;;;37.90;9.63;;;12.00;53.70;;;;;;5034935;28;20209;-96
2023/03/08 11:03:18;;;;;;;39.13;9.27;;;12.00;53.70;;;;;;5033187;28;20315;-96
2023/03/08 11:05:57;;;;;;;25.87;8.97;;;12.00;53.70;;;;;;5034350;28;20308;-96
2023/03/08 11:08:30;;;;;;;43.57;9.87;;;12.00;53.70;;;;;;5033073;28;20214;-96
2023/03/08 11:11:08;;;;;;;29.43;9.40;;;12.00;53.70;;;;;;5032523;28;20286;-96
2023/03/08 11:13:46;;;;;;;31.00;9.77;;;12.00;53.70;;;;;;5033903;28;20197;-96
2023/03/08 11:16:36;;;;;;;30.57;15.43;;;12.00;53.70;;;;;;5050316;28;20226;-96
2023/03/08 11:19:09;;;;;;;46.03;18.70;;;12.00;53.70;;;;;;5031864;28;20215;-90
2023/03/08 11:21:58;;;;;;;52.03;18.83;;;12.00;53.80;;;;;;5037144;28;20238;-90
2023/03/08 11:24:39;;;;;;;36.70;17.73;;;12.00;53.70;;;;;;5033779;28;20206;-94
2023/03/08 11:27:20;;;;;;;33.77;16.17;;;12.00;54.30;;;;;;5018358;28;20203;-92
2023/03/08 11:30:19;;;;;;;47.47;17.30;;;12.00;53.80;;;;;;5032841;28;20260;-93
2023/03/08 11:33:03;;;;;;;40.00;16.07;;;12.00;53.70;;;;;;5022682;28;20227;-93
2023/03/08 11:35:43;;;;;;;54.53;16.07;;;12.00;53.80;;;;;;5031929;28;20211;-92
2023/03/08 11:38:18;;;;;;;49.40;15.43;;;11.90;53.70;;;;;;5034620;28;20211;-96
2023/03/08 11:40:58;;;;;;;55.13;16.37;;;12.00;53.70;;;;;;5032344;28;20295;-96
2023/03/08 11:43:36;;;;;;;54.97;16.07;;;12.00;53.80;;;;;;5026556;28;20238;-96
2023/03/08 11:46:11;;;;;;;55.67;15.67;;;12.00;53.80;;;;;;5025436;28;20215;-96
2023/03/08 11:52:32;;;;;;;68.20;15.53;;;11.80;53.60;;;;;;5004512;28;20266;-96
2023/03/08 11:58:33;;;;;;;38.57;12.83;;;11.90;53.70;;;;;;5016516;28;20253;-96
2023/03/08 12:01:02;;;;;;;58.80;14.87;;;12.00;53.80;;;;;;5030123;28;20217;-95
2023/03/08 12:03:35;;;;;;;28.97;12.97;;;12.00;53.80;;;;;;5031777;28;20264;-96
2023/03/08 12:06:09;;;;;;;37.10;12.80;;;12.00;53.80;;;;;;5045139;28;20197;-96
2023/03/08 12:08:43;;;;;;;46.10;13.87;;;11.90;53.70;;;;;;5045913;28;20202;-96
2023/03/08 12:11:37;;;;;;;63.10;15.33;;;11.90;53.80;;;;;;5032318;28;20328;-95
2023/03/08 12:14:15;;;;;;;45.80;12.60;;;12.00;53.90;;;;;;5026601;28;20222;-96
2023/03/08 12:16:48;;;;;;;43.40;13.00;;;11.90;53.80;;;;;;5016326;28;20239;-96
2023/03/08 12:19:29;;;;;;;53.63;14.60;;;11.90;53.80;;;;;;5014370;28;20303;-95
2023/03/08 12:22:04;;;;;;;71.13;15.50;;;12.00;53.90;;;;;;5029734;28;20211;-96
2023/03/08 12:24:45;;;;;;;48.20;13.20;;;11.90;53.80;;;;;;5026241;28;20224;-95
2023/03/08 12:27:27;;;;;;;43.13;13.23;;;11.90;53.80;;;;;;5016760;28;20212;-95
2023/03/08 12:30:02;;;;;;;42.10;13.50;;;11.90;53.80;;;;;;5030929;28;20261;-94
2023/03/08 12:32:31;;;;;;;39.40;13.00;;;12.00;53.90;;;;;;5033897;28;20200;-96
2023/03/08 12:35:04;;;;;;;51.00;13.70;;;11.90;53.80;;;;;;5033765;28;20208;-94
2023/03/08 12:37:35;;;;;;;41.23;12.73;;;11.90;53.80;;;;;;5030010;28;20229;-95
2023/03/08 12:40:09;;;;;;;55.60;14.27;;;12.00;53.90;;;;;;5029136;28;20654;-95
2023/03/08 12:42:38;;;;;;;50.17;13.07;;;12.00;54.00;;;;;;5020150;28;20570;-95
2023/03/08 12:45:38;;;;;;;59.10;14.87;;;12.00;53.90;;;;;;5027406;28;20210;-96
2023/03/08 12:48:26;;;;;;;45.60;13.13;;;12.00;54.00;;;;;;5030999;28;20215;-95
2023/03/08 12:53:59;;;;;;;47.87;13.33;;;12.00;53.90;;;;;;5019183;22;20373;-96
2023/03/08 12:56:33;;;;;;;48.23;13.90;;;12.00;53.90;;;;;;5030992;28;20765;-96
2023/03/08 12:59:03;;;;;;;43.80;12.80;;;12.00;54.00;;;;;;5031274;28;20249;-95
2023/03/08 13:01:37;;;;;;;35.77;13.00;;;12.00;53.90;;;;;;5030204;28;20233;-95
2023/03/08 13:04:07;;;;;;;55.03;13.93;;;12.00;53.90;;;;;;5031342;28;20306;-95
2023/03/08 13:07:08;;;;;;;45.83;14.27;;;12.00;53.90;;;;;;5030406;28;20296;-95
2023/03/08 13:09:45;;;;;;;43.10;12.77;;;12.00;54.00;;;;;;5031799;28;20208;-94
2023/03/08 13:12:23;;;;;;;33.53;12.03;;;12.10;54.10;;;;;;5030978;28;20787;-95
2023/03/08 13:15:01;;;;;;;37.47;12.57;;;12.10;54.00;;;;;;5030873;28;20212;-95
2023/03/08 13:17:48;;;;;;;48.33;13.10;;;12.10;54.00;;;;;;5032344;28;20223;-96
2023/03/08 13:20:20;;;;;;;48.90;12.63;;;12.10;54.00;;;;;;5021456;28;20215;-94
2023/03/08 13:22:59;;;;;;;61.73;13.83;;;12.00;54.00;;;;;;5019172;28;20215;-95
2023/03/08 13:25:44;;;;;;;45.70;12.63;;;12.10;54.00;;;;;;5030629;28;20288;-96
2023/03/08 13:28:15;;;;;;;52.47;14.57;;;12.00;54.00;;;;;;5028702;28;20265;-96